Time;durP1;ratioP1;P1;durP2;ratioP2;P2;SDS_P1;SDS_P2;PMS_P1;PMS_P2;Temp;Humidity;BMP_temperature;BMP_pressure;BME280_temperature;BME280_humidity;BME280_pressure;Samples;Min_cycle;Max_cycle;Signal;HPM_P1;HPM_P2
2023/06/10 00:02:17;;;;;;;;;;;15.20;99.90;;;;;;6100931;23;19948;-72
2023/06/10 00:04:43;;;;;;;;;;;15.20;99.90;;;;;;6100193;23;19921;-72
2023/06/10 00:07:08;;;;;;;;;;;15.10;99.90;;;;;;6126827;23;19928;-73
2023/06/10 00:09:37;;;;;;;;;;;15.10;99.90;;;;;;6126119;23;19968;-73
2023/06/10 00:12:12;;;;;;;;;;;15.10;99.90;;;;;;6126046;23;19967;-73
2023/06/10 00:14:38;;;;;;;;;;;15.10;99.90;;;;;;6100283;23;19921;-73
2023/06/10 00:17:04;;;;;;;;;;;15.00;99.90;;;;;;6123915;23;19921;-72
2023/06/10 00:19:30;;;;;;;;;;;15.00;99.90;;;;;;6126397;23;19976;-72
2023/06/10 00:21:59;;;;;;;;;;;15.00;99.90;;;;;;6099507;23;19929;-73
2023/06/10 00:24:25;;;;;;;;;;;14.80;99.90;;;;;;6125686;23;19951;-73
2023/06/10 00:26:50;;;;;;;;;;;14.90;99.90;;;;;;6100035;23;19921;-73
2023/06/10 00:29:16;;;;;;;;;;;14.90;99.90;;;;;;6126656;23;20257;-73
2023/06/10 00:31:41;;;;;;;;;;;14.90;99.90;;;;;;6099616;23;19921;-73
2023/06/10 00:34:07;;;;;;;;;;;14.90;99.90;;;;;;6126102;23;19928;-73
2023/06/10 00:36:36;;;;;;;;;;;14.80;99.90;;;;;;6100355;23;19921;-73
2023/06/10 00:39:02;;;;;;;;;;;14.80;99.90;;;;;;6098991;23;20356;-73
2023/06/10 00:41:28;;;;;;;;;;;14.70;99.90;;;;;;6099327;23;20004;-73
2023/06/10 00:43:53;;;;;;;;;;;14.70;99.90;;;;;;6125541;23;19972;-73
2023/06/10 00:46:19;;;;;;;;;;;14.70;99.90;;;;;;6125557;23;19917;-72
2023/06/10 00:48:45;;;;;;;;;;;14.70;99.90;;;;;;6100161;23;19960;-73
2023/06/10 00:51:11;;;;;;;;;;;14.70;99.90;;;;;;6099433;23;19921;-73
2023/06/10 00:53:43;;;;;;;;;;;14.60;99.90;;;;;;6099530;23;20405;-73
2023/06/10 00:56:09;;;;;;;;;;;15.50;99.90;;;;;;6126348;23;19928;-73
2023/06/10 00:58:35;;;;;;;;;;;14.60;99.90;;;;;;6100426;23;19925;-73
2023/06/10 01:01:01;;;;;;;;;;;14.60;99.90;;;;;;6125280;23;20004;-73
2023/06/10 01:03:27;;;;;;;;;;;14.50;99.90;;;;;;6100317;23;19951;-73
2023/06/10 01:06:03;;;;;;;;;;;14.70;99.90;;;;;;6125240;23;19928;-73
2023/06/10 01:08:33;;;;;;;;;;;14.50;99.90;;;;;;6126759;23;19928;-73
2023/06/10 01:11:00;;;;;;;;;;;14.50;99.90;;;;;;6100106;23;19921;-72
2023/06/10 01:13:28;;;;;;;;;;;14.50;99.90;;;;;;6097712;23;20264;-72
2023/06/10 01:15:57;;;;;;;;;;;14.50;99.90;;;;;;6104789;23;19927;-72
2023/06/10 01:18:30;;;;;;;;;;;14.50;99.90;;;;;;6131725;23;19921;-72
2023/06/10 01:20:56;;;;;;;;;;;14.40;99.90;;;;;;6126678;23;20008;-73
2023/06/10 01:23:22;;;;;;;;;;;14.40;99.90;;;;;;6126170;23;19956;-73
2023/06/10 01:25:57;;;;;;;;;;;14.40;99.90;;;;;;6126501;23;19921;-73
2023/06/10 01:28:42;;;;;;;;;;;14.30;99.90;;;;;;6125283;23;19921;-73
2023/06/10 01:31:17;;;;;;;;;;;14.20;99.90;;;;;;6099713;23;19924;-73
2023/06/10 01:33:45;;;;;;;;;;;14.20;99.90;;;;;;6099238;23;20259;-73
2023/06/10 01:36:11;;;;;;;;;;;14.20;99.90;;;;;;6098779;23;19921;-73
2023/06/10 01:38:40;;;;;;;;;;;14.10;99.90;;;;;;6099981;23;19974;-73
2023/06/10 01:41:06;;;;;;;;;;;14.10;99.90;;;;;;6124645;23;19925;-73
2023/06/10 01:43:35;;;;;;;;;;;14.10;99.90;;;;;;6125861;23;19971;-72
2023/06/10 01:46:07;;;;;;;;;;;14.00;99.90;;;;;;6099726;23;19964;-73
2023/06/10 01:48:32;;;;;;;;;;;14.00;99.90;;;;;;6125168;23;20293;-73
2023/06/10 01:50:58;;;;;;;;;;;14.00;99.90;;;;;;6100975;23;20326;-72
2023/06/10 01:53:24;;;;;;;;;;;14.00;99.90;;;;;;6127696;23;19968;-73
2023/06/10 01:55:50;;;;;;;;;;;13.90;99.90;;;;;;6126468;23;19921;-72
2023/06/10 01:58:16;;;;;;;;;;;13.90;99.90;;;;;;6101528;23;20357;-73
2023/06/10 02:00:41;;;;;;;;;;;13.90;99.90;;;;;;6101363;23;19995;-72
2023/06/10 02:03:07;;;;;;;;;;;13.90;99.90;;;;;;6126455;23;20230;-72
2023/06/10 02:05:33;;;;;;;;;;;13.80;99.90;;;;;;6101349;23;19928;-73
2023/06/10 02:07:58;;;;;;;;;;;13.80;99.90;;;;;;6127410;23;19928;-73
2023/06/10 02:10:24;;;;;;;;;;;13.80;99.90;;;;;;6126939;23;19927;-73
2023/06/10 02:12:49;;;;;;;;;;;13.80;99.90;;;;;;6101135;23;19921;-72
2023/06/10 02:15:15;;;;;;;;;;;13.70;99.90;;;;;;6127029;23;20061;-73
2023/06/10 02:17:40;;;;;;;;;;;13.70;99.90;;;;;;6099847;23;19921;-73
2023/06/10 02:20:07;;;;;;;;;;;13.70;99.90;;;;;;6126781;23;19921;-73
2023/06/10 02:22:41;;;;;;;;;;;13.60;99.90;;;;;;6101415;23;19921;-73
2023/06/10 02:25:07;;;;;;;;;;;13.60;99.90;;;;;;6125919;23;19939;-73
2023/06/10 02:27:33;;;;;;;;;;;13.50;99.90;;;;;;6127286;23;20326;-73
2023/06/10 02:29:58;;;;;;;;;;;13.50;99.90;;;;;;6126835;23;19975;-73
2023/06/10 02:32:25;;;;;;;;;;;13.50;99.90;;;;;;6100403;23;19921;-73
2023/06/10 02:34:50;;;;;;;;;;;13.40;99.90;;;;;;6100773;23;19972;-73
2023/06/10 02:37:20;;;;;;;;;;;13.40;99.90;;;;;;6100532;23;20285;-73
2023/06/10 02:39:51;;;;;;;;;;;13.40;99.90;;;;;;6126981;23;19955;-73
2023/06/10 02:42:17;;;;;;;;;;;13.90;99.90;;;;;;6101288;23;19921;-73
2023/06/10 02:44:42;;;;;;;;;;;13.40;99.90;;;;;;6099881;23;19943;-73
2023/06/10 02:47:08;;;;;;;;;;;13.40;99.90;;;;;;6127042;23;20289;-73
2023/06/10 02:49:33;;;;;;;;;;;13.40;99.90;;;;;;6101107;23;19944;-73
2023/06/10 02:51:59;;;;;;;;;;;13.40;99.90;;;;;;6099647;23;19928;-73
2023/06/10 02:54:24;;;;;;;;;;;13.30;99.90;;;;;;6100893;23;20301;-73
2023/06/10 02:56:51;;;;;;;;;;;13.30;99.90;;;;;;6100758;23;19921;-73
2023/06/10 02:59:16;;;;;;;;;;;13.30;99.90;;;;;;6099390;23;20336;-73
2023/06/10 03:01:42;;;;;;;;;;;13.30;99.90;;;;;;6100017;23;19928;-73
2023/06/10 03:04:08;;;;;;;;;;;13.30;99.90;;;;;;6100189;23;19925;-73
2023/06/10 03:06:35;;;;;;;;;;;13.20;99.90;;;;;;6125744;23;20350;-73
2023/06/10 03:09:00;;;;;;;;;;;13.20;99.90;;;;;;6100510;23;20298;-73
2023/06/10 03:11:26;;;;;;;;;;;13.20;99.90;;;;;;6100408;23;20368;-73
2023/06/10 03:13:53;;;;;;;;;;;13.10;99.90;;;;;;6124753;23;19925;-73
2023/06/10 03:16:19;;;;;;;;;;;13.10;99.90;;;;;;6126679;23;20048;-73
2023/06/10 03:18:45;;;;;;;;;;;13.00;99.90;;;;;;6126728;23;20350;-73
2023/06/10 03:21:13;;;;;;;;;;;13.10;99.90;;;;;;6125642;23;19921;-74
2023/06/10 03:23:41;;;;;;;;;;;13.00;99.90;;;;;;6126466;23;20365;-74
2023/06/10 03:26:07;;;;;;;;;;;13.00;99.90;;;;;;6125835;23;19921;-73
2023/06/10 03:28:33;;;;;;;;;;;13.00;99.90;;;;;;6100383;23;20244;-73
2023/06/10 03:30:58;;;;;;;;;;;13.00;99.90;;;;;;6100101;23;19920;-74
2023/06/10 03:33:24;;;;;;;;;;;12.90;99.90;;;;;;6126808;23;19920;-74
2023/06/10 03:35:50;;;;;;;;;;;12.90;99.90;;;;;;6125826;23;19927;-74
2023/06/10 03:38:16;;;;;;;;;;;12.90;99.90;;;;;;6126825;23;20007;-73
2023/06/10 03:40:41;;;;;;;;;;;12.90;99.90;;;;;;6125088;23;19921;-73
2023/06/10 03:43:07;;;;;;;;;;;12.90;99.90;;;;;;6125990;23;19996;-74
2023/06/10 03:45:33;;;;;;;;;;;12.90;99.90;;;;;;6126668;23;20381;-73
2023/06/10 03:47:58;;;;;;;;;;;12.90;99.90;;;;;;6125136;23;19921;-73
2023/06/10 03:50:24;;;;;;;;;;;12.90;99.90;;;;;;6100304;23;19921;-73
2023/06/10 03:52:50;;;;;;;;;;;12.90;99.90;;;;;;6099814;23;19916;-73
2023/06/10 03:55:16;;;;;;;;;;;12.90;99.90;;;;;;6099345;23;20346;-73
2023/06/10 03:57:42;;;;;;;;;;;13.00;99.90;;;;;;6100137;23;19921;-73
2023/06/10 04:00:12;;;;;;;;;;;12.90;99.90;;;;;;6099805;23;20286;-73
2023/06/10 04:02:41;;;;;;;;;;;12.90;99.90;;;;;;6099330;23;20353;-74
2023/06/10 04:05:07;;;;;;;;;;;13.00;99.90;;;;;;6100079;23;19923;-73
2023/06/10 04:07:34;;;;;;;;;;;12.90;99.90;;;;;;6126183;23;19921;-73
2023/06/10 04:10:02;;;;;;;;;;;13.00;99.90;;;;;;6099043;23;20250;-74
2023/06/10 04:12:28;;;;;;;;;;;13.10;99.90;;;;;;6099962;23;19996;-73
2023/06/10 04:14:53;;;;;;;;;;;13.00;99.90;;;;;;6099879;23;19959;-73
2023/06/10 04:17:21;;;;;;;;;;;13.00;99.90;;;;;;6124895;23;19972;-73
2023/06/10 04:19:47;;;;;;;;;;;13.00;99.90;;;;;;6126541;23;19921;-74
2023/06/10 04:22:12;;;;;;;;;;;13.10;99.90;;;;;;6126456;23;19921;-74
2023/06/10 04:24:38;;;;;;;;;;;13.10;99.90;;;;;;6125143;23;19921;-74
2023/06/10 04:27:04;;;;;;;;;;;13.10;99.90;;;;;;6099578;23;19975;-73
2023/06/10 04:29:30;;;;;;;;;;;13.20;99.90;;;;;;6100340;23;19952;-74
2023/06/10 04:31:56;;;;;;;;;;;13.20;99.90;;;;;;6124788;23;19925;-74
2023/06/10 04:34:21;;;;;;;;;;;13.70;99.90;;;;;;6100370;23;19921;-74
2023/06/10 04:36:47;;;;;;;;;;;13.30;99.90;;;;;;6125509;23;19992;-73
2023/06/10 04:39:13;;;;;;;;;;;13.30;99.90;;;;;;6126216;23;19920;-74
2023/06/10 04:41:38;;;;;;;;;;;13.80;99.90;;;;;;6126056;23;19968;-73
2023/06/10 04:44:04;;;;;;;;;;;13.40;99.90;;;;;;6099033;23;19932;-74
2023/06/10 04:46:31;;;;;;;;;;;13.50;99.90;;;;;;6100138;23;19980;-73
2023/06/10 04:49:04;;;;;;;;;;;13.50;99.90;;;;;;6125897;23;19957;-74
2023/06/10 04:51:30;;;;;;;;;;;13.60;99.90;;;;;;6101199;23;20215;-73
2023/06/10 04:53:56;;;;;;;;;;;13.70;99.90;;;;;;6126686;23;19928;-74
2023/06/10 04:56:22;;;;;;;;;;;13.80;99.90;;;;;;6132261;23;19961;-73
2023/06/10 04:58:53;;;;;;;;;;;13.80;99.90;;;;;;6104107;23;19917;-73
2023/06/10 05:01:22;;;;;;;;;;;13.90;99.90;;;;;;6105632;23;20397;-73
2023/06/10 05:03:47;;;;;;;;;;;13.90;99.90;;;;;;6101016;23;19928;-74
2023/06/10 05:06:16;;;;;;;;;;;13.90;99.90;;;;;;6099160;23;19980;-74
2023/06/10 05:08:41;;;;;;;;;;;14.00;99.90;;;;;;6126192;23;19920;-74
2023/06/10 05:11:07;;;;;;;;;;;14.00;99.90;;;;;;6125539;23;19925;-74
2023/06/10 05:13:32;;;;;;;;;;;14.10;99.90;;;;;;6124537;23;19921;-74
2023/06/10 05:16:00;;;;;;;;;;;14.10;99.90;;;;;;6099108;23;19921;-73
2023/06/10 05:18:25;;;;;;;;;;;14.20;99.90;;;;;;6099550;23;19991;-74
2023/06/10 05:20:51;;;;;;;;;;;14.30;99.90;;;;;;6124295;23;20342;-73
2023/06/10 05:23:17;;;;;;;;;;;14.30;99.90;;;;;;6099616;23;20286;-74
2023/06/10 05:25:42;;;;;;;;;;;14.40;99.90;;;;;;6127269;23;19928;-74
2023/06/10 05:28:09;;;;;;;;;;;14.40;99.90;;;;;;6100054;23;19925;-74
2023/06/10 05:30:35;;;;;;;;;;;14.40;99.90;;;;;;6127756;23;19948;-74
2023/06/10 05:33:01;;;;;;;;;;;14.50;99.90;;;;;;6100606;23;20330;-74
2023/06/10 05:35:26;;;;;;;;;;;14.60;99.90;;;;;;6127559;23;19921;-74
2023/06/10 05:37:52;;;;;;;;;;;14.60;99.90;;;;;;6127478;23;19941;-73
2023/06/10 05:40:17;;;;;;;;;;;14.70;99.90;;;;;;6100571;23;19971;-74
2023/06/10 05:42:43;;;;;;;;;;;14.80;99.90;;;;;;6101519;23;19984;-74
2023/06/10 05:45:09;;;;;;;;;;;14.90;99.90;;;;;;6101677;23;19921;-74
2023/06/10 05:47:34;;;;;;;;;;;14.90;99.90;;;;;;6100665;23;19921;-73
2023/06/10 05:50:00;;;;;;;;;;;15.00;99.90;;;;;;6101204;23;19952;-74
2023/06/10 05:52:25;;;;;;;;;;;15.00;99.90;;;;;;6127292;23;19925;-74
2023/06/10 05:54:51;;;;;;;;;;;15.10;99.90;;;;;;6126151;23;20066;-74
2023/06/10 05:57:17;;;;;;;;;;;15.10;99.90;;;;;;6127526;23;19987;-74
2023/06/10 05:59:42;;;;;;;;;;;15.20;99.90;;;;;;6101520;23;19925;-74
2023/06/10 06:02:08;;;;;;;;;;;15.20;99.90;;;;;;6100093;23;19925;-74
2023/06/10 06:04:34;;;;;;;;;;;15.30;99.90;;;;;;6101021;23;20043;-74
2023/06/10 06:06:59;;;;;;;;;;;15.30;99.90;;;;;;6101071;23;19983;-74
2023/06/10 06:09:25;;;;;;;;;;;15.40;99.90;;;;;;6100859;23;20242;-74
2023/06/10 06:11:51;;;;;;;;;;;15.50;99.90;;;;;;6127292;23;19921;-74
2023/06/10 06:14:16;;;;;;;;;;;15.50;99.90;;;;;;6101185;23;20019;-74
2023/06/10 06:16:42;;;;;;;;;;;15.70;99.90;;;;;;6100131;23;19921;-74
2023/06/10 06:19:08;;;;;;;;;;;15.70;99.90;;;;;;6126603;23;19925;-75
2023/06/10 06:21:34;;;;;;;;;;;15.80;99.90;;;;;;6126977;23;19921;-75
2023/06/10 06:23:59;;;;;;;;;;;15.90;99.90;;;;;;6125860;23;20039;-75
2023/06/10 06:26:25;;;;;;;;;;;16.00;99.90;;;;;;6127569;23;19956;-75
2023/06/10 06:28:51;;;;;;;;;;;16.00;99.90;;;;;;6126797;23;19925;-75
2023/06/10 06:31:17;;;;;;;;;;;16.10;99.90;;;;;;6100493;23;19984;-75
2023/06/10 06:33:43;;;;;;;;;;;16.20;99.90;;;;;;6101065;23;20318;-75
2023/06/10 06:36:08;;;;;;;;;;;16.20;99.90;;;;;;6100620;23;20328;-75
2023/06/10 06:38:34;;;;;;;;;;;16.30;99.90;;;;;;6126530;23;20241;-75
2023/06/10 06:41:04;;;;;;;;;;;16.40;99.90;;;;;;6100733;23;20052;-75
2023/06/10 06:43:33;;;;;;;;;;;16.50;99.90;;;;;;6100056;23;20249;-75
2023/06/10 06:45:58;;;;;;;;;;;16.60;99.90;;;;;;6126612;23;20249;-75
2023/06/10 06:48:24;;;;;;;;;;;16.60;99.90;;;;;;6127090;23;19921;-75
2023/06/10 06:50:49;;;;;;;;;;;16.70;99.90;;;;;;6099673;23;20325;-76
2023/06/10 06:53:15;;;;;;;;;;;16.90;99.90;;;;;;6123436;23;19928;-75
2023/06/10 06:55:40;;;;;;;;;;;16.90;99.90;;;;;;6099565;23;19921;-77
2023/06/10 06:58:09;;;;;;;;;;;17.00;99.90;;;;;;6124540;23;19925;-76
2023/06/10 07:00:34;;;;;;;;;;;17.10;99.90;;;;;;6125741;23;20237;-76
2023/06/10 07:03:00;;;;;;;;;;;17.20;99.90;;;;;;6099589;23;20366;-78
2023/06/10 07:05:28;;;;;;;;;;;17.30;99.90;;;;;;6099464;23;20085;-77
2023/06/10 07:07:55;;;;;;;;;;;17.40;99.90;;;;;;6099235;23;20000;-76
2023/06/10 07:10:24;;;;;;;;;;;17.60;99.90;;;;;;6126343;23;19921;-76
2023/06/10 07:12:50;;;;;;;;;;;17.70;99.90;;;;;;6098097;23;19964;-78
2023/06/10 07:15:15;;;;;;;;;;;17.90;99.90;;;;;;6099914;23;19928;-79
2023/06/10 07:17:41;;;;;;;;;;;18.10;99.90;;;;;;6124751;23;19924;-80
2023/06/10 07:20:07;;;;;;;;;;;18.50;99.90;;;;;;6098128;23;19925;-82
2023/06/10 07:22:32;;;;;;;;;;;19.30;99.90;;;;;;6125999;23;20274;-77
2023/06/10 07:24:58;;;;;;;;;;;20.40;99.90;;;;;;6125925;23;19921;-78
2023/06/10 07:27:23;;;;;;;;;;;21.20;99.90;;;;;;6099177;23;19925;-77
2023/06/10 07:29:50;;;;;;;;;;;21.90;99.90;;;;;;6100990;23;19927;-77
2023/06/10 07:32:15;;;;;;;;;;;22.50;99.90;;;;;;6100698;23;19928;-77
2023/06/10 07:34:41;;;;;;;;;;;23.20;99.90;;;;;;6125994;23;19921;-77
2023/06/10 07:37:08;;;;;;;;;;;23.80;99.90;;;;;;6099470;23;19925;-77
2023/06/10 07:39:34;;;;;;;;;;;24.00;99.20;;;;;;6099813;23;19921;-76
2023/06/10 07:42:00;;;;;;;;;;;24.50;98.00;;;;;;6125220;23;19971;-77
2023/06/10 07:44:26;;;;;;;;;;;24.70;98.30;;;;;;6100104;23;19920;-76
2023/06/10 07:46:51;;;;;;;;;;;25.00;97.80;;;;;;6124907;23;19917;-77
2023/06/10 07:49:17;;;;;;;;;;;25.30;97.80;;;;;;6125801;23;19921;-75
2023/06/10 07:51:42;;;;;;;;;;;25.60;97.30;;;;;;6099948;23;20258;-77
2023/06/10 07:54:08;;;;;;;;;;;25.80;97.70;;;;;;6099629;23;20303;-76
2023/06/10 07:56:33;;;;;;;;;;;26.10;96.70;;;;;;6100303;23;19921;-76
2023/06/10 07:58:59;;;;;;;;;;;26.40;96.40;;;;;;6124315;23;19996;-77
2023/06/10 08:01:24;;;;;;;;;;;26.60;95.80;;;;;;6098802;23;19931;-79
2023/06/10 08:03:50;;;;;;;;;;;26.80;95.70;;;;;;6098668;23;20231;-75
2023/06/10 08:06:21;;;;;;;;;;;27.00;95.10;;;;;;6099504;23;20079;-74
2023/06/10 08:08:47;;;;;;;;;;;27.20;94.40;;;;;;6124375;23;19948;-75
2023/06/10 08:11:13;;;;;;;;;;;27.40;94.50;;;;;;6126468;23;19925;-76
2023/06/10 08:13:39;;;;;;;;;;;27.40;94.50;;;;;;6099775;23;19917;-75
2023/06/10 08:16:08;;;;;;;;;;;27.50;93.10;;;;;;6098862;23;19925;-76
2023/06/10 08:18:36;;;;;;;;;;;27.60;93.60;;;;;;6126058;23;19921;-77
2023/06/10 08:21:01;;;;;;;;;;;27.60;92.80;;;;;;6125599;23;19924;-75
2023/06/10 08:23:27;;;;;;;;;;;27.80;92.10;;;;;;6099184;23;19928;-75
2023/06/10 08:25:52;;;;;;;;;;;28.00;92.70;;;;;;6099471;23;20361;-76
2023/06/10 08:28:18;;;;;;;;;;;28.00;93.20;;;;;;6101056;23;20250;-76
2023/06/10 08:30:44;;;;;;;;;;;28.00;92.70;;;;;;6125886;23;19925;-75
2023/06/10 08:33:09;;;;;;;;;;;28.20;91.90;;;;;;6126148;23;20243;-75
2023/06/10 08:35:35;;;;;;;;;;;28.20;91.20;;;;;;6126808;23;19921;-77
2023/06/10 08:38:00;;;;;;;;;;;28.30;91.00;;;;;;6101494;23;19921;-76
2023/06/10 08:40:26;;;;;;;;;;;28.40;90.70;;;;;;6130758;23;19963;-74
2023/06/10 08:43:02;;;;;;;;;;;28.60;90.90;;;;;;6104183;23;19925;-75
2023/06/10 08:45:31;;;;;;;;;;;28.60;90.40;;;;;;6128067;23;19928;-76
2023/06/10 08:47:57;;;;;;;;;;;28.60;88.80;;;;;;6124669;23;19925;-76
2023/06/10 08:50:23;;;;;;;;;;;28.50;88.00;;;;;;6124551;23;19920;-77
2023/06/10 08:52:53;;;;;;;;;;;28.80;88.80;;;;;;6125091;23;19920;-77
2023/06/10 08:55:27;;;;;;;;;;;28.90;90.00;;;;;;6099073;23;19944;-77
2023/06/10 08:57:56;;;;;;;;;;;29.10;90.20;;;;;;6097675;23;19921;-77
2023/06/10 09:00:21;;;;;;;;;;;29.20;86.40;;;;;;6126345;23;20289;-78
2023/06/10 09:02:47;;;;;;;;;;;29.20;84.60;;;;;;6128052;23;19983;-77
2023/06/10 09:05:13;;;;;;;;;;;29.10;85.50;;;;;;6124428;23;20285;-76
2023/06/10 09:07:39;;;;;;;;;;;29.50;87.30;;;;;;6101149;23;19993;-75
2023/06/10 09:10:06;;;;;;;;;;;29.80;85.70;;;;;;6102203;23;20387;-74
2023/06/10 09:12:35;;;;;;;;;;;30.00;84.50;;;;;;6101955;23;19972;-75
2023/06/10 09:15:01;;;;;;;;;;;30.00;85.00;;;;;;6127807;23;19956;-75
2023/06/10 09:17:30;;;;;;;;;;;29.90;84.60;;;;;;6101558;23;19936;-74
2023/06/10 09:19:59;;;;;;;;;;;29.80;84.40;;;;;;6099381;23;19921;-73
2023/06/10 09:22:28;;;;;;;;;;;29.90;88.20;;;;;;6101190;23;19975;-76
2023/06/10 09:25:08;;;;;;;;;;;30.10;83.90;;;;;;6101927;23;19921;-73
2023/06/10 09:27:49;;;;;;;;;;;29.90;86.90;;;;;;6100178;23;19930;-74
2023/06/10 09:30:25;;;;;;;;;;;30.00;86.20;;;;;;6100192;23;19921;-77
2023/06/10 09:32:51;;;;;;;;;;;30.10;87.00;;;;;;6123536;23;20027;-75
2023/06/10 09:35:20;;;;;;;;;;;30.20;86.10;;;;;;6098302;23;19925;-78
2023/06/10 09:37:45;;;;;;;;;;;30.40;86.80;;;;;;6098895;23;19999;-76
2023/06/10 09:40:13;;;;;;;;;;;30.50;86.60;;;;;;6098298;23;19925;-78
2023/06/10 09:42:39;;;;;;;;;;;30.70;85.20;;;;;;6098480;23;19968;-75
2023/06/10 09:45:05;;;;;;;;;;;30.50;84.20;;;;;;6125099;23;19917;-77
2023/06/10 09:47:31;;;;;;;;;;;30.70;85.90;;;;;;6099875;23;20293;-76
2023/06/10 09:50:03;;;;;;;;;;;30.90;85.10;;;;;;6127212;23;19972;-78
2023/06/10 09:52:30;;;;;;;;;;;31.00;85.10;;;;;;6127318;23;20237;-76
2023/06/10 09:54:59;;;;;;;;;;;31.30;85.10;;;;;;6125676;23;19928;-77
2023/06/10 09:57:33;;;;;;;;;;;31.10;85.20;;;;;;6100208;23;20333;-84
2023/06/10 09:59:59;;;;;;;;;;;31.00;83.40;;;;;;6099451;23;19921;-79
2023/06/10 10:02:24;;;;;;;;;;;30.60;83.20;;;;;;6125687;23;19971;-73
2023/06/10 10:04:50;;;;;;;;;;;30.70;84.80;;;;;;6098407;23;19929;-80
2023/06/10 10:07:15;;;;;;;;;;;30.70;85.10;;;;;;6125971;23;19931;-76
2023/06/10 10:09:41;;;;;;;;;;;31.00;85.10;;;;;;6099944;23;20326;-78
2023/06/10 10:12:11;;;;;;;;;;;30.90;86.20;;;;;;6125264;23;20120;-77
2023/06/10 10:14:43;;;;;;;;;;;30.90;82.70;;;;;;6122905;23;19932;-76
2023/06/10 10:17:09;;;;;;;;;;;31.60;86.20;;;;;;6097447;23;19929;-80
2023/06/10 10:19:38;;;;;;;;;;;30.80;84.70;;;;;;6123703;23;19925;-76
2023/06/10 10:22:09;;;;;;;;;;;31.10;85.90;;;;;;6095390;23;19967;-83
2023/06/10 10:24:38;;;;;;;;;;;31.20;83.70;;;;;;6098446;23;20250;-76
2023/06/10 10:27:16;;;;;;;;;;;31.20;84.30;;;;;;6094641;23;19996;-74
2023/06/10 10:29:44;;;;;;;;;;;31.30;85.40;;;;;;6125407;23;19927;-74
2023/06/10 10:32:11;;;;;;;;;;;31.50;84.50;;;;;;6099566;23;19921;-80
2023/06/10 10:34:43;;;;;;;;;;;31.50;81.70;;;;;;6100368;23;19925;-76
2023/06/10 10:37:08;;;;;;;;;;;31.60;83.70;;;;;;6098117;23;19931;-77
2023/06/10 10:39:35;;;;;;;;;;;31.20;79.60;;;;;;6125557;23;19999;-71
2023/06/10 10:42:05;;;;;;;;;;;30.90;83.80;;;;;;6098557;23;19932;-74
2023/06/10 10:44:40;;;;;;;;;;;30.80;83.00;;;;;;6124709;23;20309;-72
2023/06/10 10:47:08;;;;;;;;;;;30.90;84.30;;;;;;6099513;23;19928;-72
2023/06/10 10:49:35;;;;;;;;;;;30.90;79.90;;;;;;6124966;23;19925;-70
2023/06/10 10:52:01;;;;;;;;;;;31.10;80.70;;;;;;6122607;23;19925;-70
2023/06/10 10:54:34;;;;;;;;;;;31.10;80.70;;;;;;6099752;23;19925;-73
2023/06/10 10:57:08;;;;;;;;;;;31.30;80.80;;;;;;6091345;23;19924;-75
2023/06/10 10:59:43;;;;;;;;;;;31.10;78.60;;;;;;6098503;23;19921;-75
2023/06/10 11:02:09;;;;;;;;;;;30.80;78.70;;;;;;6122731;23;19921;-75
2023/06/10 11:04:34;;;;;;;;;;;30.90;80.40;;;;;;6124395;23;19921;-74
2023/06/10 11:07:06;;;;;;;;;;;30.90;79.20;;;;;;6124719;23;19921;-74
2023/06/10 11:09:32;;;;;;;;;;;30.90;78.40;;;;;;6099939;23;19968;-75
2023/06/10 11:12:00;;;;;;;;;;;30.90;77.10;;;;;;6097878;23;19925;-74
2023/06/10 11:14:28;;;;;;;;;;;30.90;76.60;;;;;;6094113;23;20329;-77
2023/06/10 11:16:57;;;;;;;;;;;31.10;78.90;;;;;;6097728;23;19924;-76
2023/06/10 11:19:33;;;;;;;;;;;31.30;77.20;;;;;;6096651;23;19924;-74
2023/06/10 11:22:00;;;;;;;;;;;31.50;77.90;;;;;;6125071;23;19921;-80
2023/06/10 11:24:26;;;;;;;;;;;31.40;74.70;;;;;;6098966;23;19921;-77
2023/06/10 11:26:52;;;;;;;;;;;31.40;77.80;;;;;;6098499;23;19956;-75
2023/06/10 11:29:20;;;;;;;;;;;31.40;78.00;;;;;;6125536;23;20362;-74
2023/06/10 11:31:52;;;;;;;;;;;31.10;79.60;;;;;;6097901;23;19953;-71
2023/06/10 11:34:23;;;;;;;;;;;31.00;80.00;;;;;;6122308;23;19968;-75
2023/06/10 11:36:48;;;;;;;;;;;31.00;82.00;;;;;;6123028;23;19921;-76
2023/06/10 11:39:14;;;;;;;;;;;30.90;84.50;;;;;;6123130;23;19967;-74
2023/06/10 11:41:40;;;;;;;;;;;31.00;87.60;;;;;;6125370;23;19921;-75
2023/06/10 11:44:09;;;;;;;;;;;31.00;85.30;;;;;;6092637;23;19979;-78
2023/06/10 11:46:35;;;;;;;;;;;30.90;86.30;;;;;;6095778;23;19925;-75
2023/06/10 11:49:02;;;;;;;;;;;30.90;86.70;;;;;;6123872;23;20051;-76
2023/06/10 11:51:29;;;;;;;;;;;30.80;87.80;;;;;;6123725;23;19924;-77
2023/06/10 11:54:10;;;;;;;;;;;30.90;89.00;;;;;;6108426;23;19952;-76
2023/06/10 12:00:38;;;;;;;;;;;30.50;90.60;;;;;;6099667;23;19965;-77
2023/06/10 12:03:03;;;;;;;;;;;30.30;90.30;;;;;;6124095;23;19929;-78
2023/06/10 12:05:29;;;;;;;;;;;30.40;90.70;;;;;;6100447;23;20322;-76
2023/06/10 12:08:14;;;;;;;;;;;30.50;90.80;;;;;;6100296;23;20023;-75
2023/06/10 12:10:41;;;;;;;;;;;30.60;89.80;;;;;;6099162;23;19924;-78
2023/06/10 12:13:08;;;;;;;;;;;30.20;90.30;;;;;;6100334;23;19921;-81
2023/06/10 12:15:34;;;;;;;;;;;30.30;91.10;;;;;;6093640;23;19967;-78
2023/06/10 12:18:03;;;;;;;;;;;30.20;91.60;;;;;;6124347;23;20250;-75
2023/06/10 12:20:35;;;;;;;;;;;30.20;90.90;;;;;;6096275;23;19921;-75
2023/06/10 12:23:08;;;;;;;;;;;30.20;91.30;;;;;;6095896;23;19944;-74
2023/06/10 12:25:33;;;;;;;;;;;30.00;91.40;;;;;;6120269;23;20495;-72
2023/06/10 12:27:59;;;;;;;;;;;30.00;92.30;;;;;;6122390;23;19921;-74
2023/06/10 12:30:26;;;;;;;;;;;30.00;91.70;;;;;;6125459;23;20003;-74
2023/06/10 12:32:55;;;;;;;;;;;30.00;92.00;;;;;;6099308;23;19995;-74
2023/06/10 12:35:29;;;;;;;;;;;30.00;92.20;;;;;;6097495;23;19921;-74
2023/06/10 12:37:55;;;;;;;;;;;29.90;91.60;;;;;;6098916;23;19921;-74
2023/06/10 12:40:25;;;;;;;;;;;29.70;92.40;;;;;;6098249;23;19968;-74
2023/06/10 12:42:51;;;;;;;;;;;29.40;92.60;;;;;;6098072;23;19960;-75
2023/06/10 12:45:26;;;;;;;;;;;29.30;92.50;;;;;;6098250;23;19948;-75
2023/06/10 12:47:51;;;;;;;;;;;29.30;92.80;;;;;;6125004;23;20075;-76
2023/06/10 12:50:19;;;;;;;;;;;29.30;93.00;;;;;;6097739;23;20385;-77
2023/06/10 12:52:45;;;;;;;;;;;29.10;93.30;;;;;;6124372;23;19987;-75
2023/06/10 12:55:10;;;;;;;;;;;29.10;92.70;;;;;;6124541;23;19924;-75
2023/06/10 12:57:36;;;;;;;;;;;29.10;93.10;;;;;;6097573;23;19987;-75
2023/06/10 13:00:08;;;;;;;;;;;29.10;92.80;;;;;;6096967;23;19931;-74
2023/06/10 13:02:34;;;;;;;;;;;29.10;93.00;;;;;;6097586;23;19935;-77
2023/06/10 13:05:00;;;;;;;;;;;29.20;92.80;;;;;;6123347;23;19928;-73
2023/06/10 13:07:26;;;;;;;;;;;28.90;92.30;;;;;;6098128;23;19921;-76
2023/06/10 13:09:51;;;;;;;;;;;28.90;93.10;;;;;;6099136;23;20364;-80
2023/06/10 13:12:17;;;;;;;;;;;28.70;93.00;;;;;;6125437;23;19921;-72
2023/06/10 13:14:43;;;;;;;;;;;28.70;92.70;;;;;;6123186;23;19920;-74
2023/06/10 13:19:35;;;;;;;;;;;28.80;93.40;;;;;;6122976;23;20000;-74
2023/06/10 13:22:00;;;;;;;;;;;28.70;92.40;;;;;;6097032;23;19921;-75
2023/06/10 13:24:26;;;;;;;;;;;28.60;93.20;;;;;;6123594;23;19949;-75
2023/06/10 13:26:52;;;;;;;;;;;28.60;92.80;;;;;;6098712;23;20040;-74
2023/06/10 13:29:20;;;;;;;;;;;28.70;93.60;;;;;;6099058;23;19956;-75
2023/06/10 13:31:45;;;;;;;;;;;28.70;93.30;;;;;;6098127;23;19921;-75
2023/06/10 13:34:11;;;;;;;;;;;28.70;92.50;;;;;;6097958;23;19921;-76
2023/06/10 13:36:36;;;;;;;;;;;28.70;93.00;;;;;;6124422;23;19987;-81
2023/06/10 13:39:08;;;;;;;;;;;28.60;93.30;;;;;;6094864;23;19929;-77
2023/06/10 13:41:33;;;;;;;;;;;28.80;94.00;;;;;;6123654;23;19925;-75
2023/06/10 13:43:59;;;;;;;;;;;28.60;93.00;;;;;;6123138;23;19975;-79
2023/06/10 13:46:26;;;;;;;;;;;28.60;93.30;;;;;;6099538;23;19921;-76
2023/06/10 13:48:51;;;;;;;;;;;28.30;92.90;;;;;;6100574;23;19928;-76
2023/06/10 13:51:17;;;;;;;;;;;28.30;93.50;;;;;;6100682;23;19925;-75
2023/06/10 13:53:43;;;;;;;;;;;28.30;93.40;;;;;;6126060;23;19971;-79
2023/06/10 13:56:08;;;;;;;;;;;28.20;93.40;;;;;;6099055;23;19949;-78
2023/06/10 13:58:38;;;;;;;;;;;28.10;92.90;;;;;;6100153;23;19928;-77
2023/06/10 14:01:05;;;;;;;;;;;28.10;93.30;;;;;;6099298;23;19953;-77
2023/06/10 14:03:30;;;;;;;;;;;28.00;93.50;;;;;;6099372;23;19920;-74
2023/06/10 14:05:55;;;;;;;;;;;28.10;93.90;;;;;;6100377;23;20356;-76
2023/06/10 14:08:22;;;;;;;;;;;28.00;93.40;;;;;;6095966;23;19956;-77
2023/06/10 14:10:48;;;;;;;;;;;28.00;93.40;;;;;;6100409;23;19921;-75
2023/06/10 14:13:17;;;;;;;;;;;28.00;93.50;;;;;;6124733;23;19921;-76
2023/06/10 14:15:42;;;;;;;;;;;27.90;93.90;;;;;;6100604;23;19967;-79
2023/06/10 14:18:08;;;;;;;;;;;27.80;93.00;;;;;;6099145;23;20401;-74
2023/06/10 14:20:33;;;;;;;;;;;27.90;93.70;;;;;;6095943;23;20270;-76
2023/06/10 14:22:59;;;;;;;;;;;27.90;93.40;;;;;;6096866;23;19928;-74